createdAt,value
2023-04-12T00:00:37.078Z,3.65
2023-04-12T00:03:08.061Z,2.85
2023-04-12T00:05:36.560Z,3.67
2023-04-12T00:08:05.340Z,2.40
2023-04-12T00:10:33.700Z,3.50
2023-04-12T00:13:02.911Z,3.50
2023-04-12T00:15:33.098Z,2.35
2023-04-12T00:18:01.574Z,3.55
2023-04-12T00:20:30.316Z,3.22
2023-04-12T00:22:58.860Z,2.78
2023-04-12T00:25:27.566Z,2.67
2023-04-12T00:27:56.276Z,3.35
2023-04-12T00:30:26.881Z,2.63
2023-04-12T00:32:57.051Z,2.80
2023-04-12T00:35:28.083Z,3.42
2023-04-12T00:37:56.778Z,2.53
2023-04-12T00:40:25.557Z,4.00
2023-04-12T00:42:54.201Z,3.20
2023-04-12T00:45:22.955Z,3.33
2023-04-12T00:47:51.535Z,2.75
2023-04-12T00:50:23.510Z,2.90
2023-04-12T00:52:55.589Z,2.92
2023-04-12T00:55:25.045Z,3.28
2023-04-12T00:57:54.271Z,3.13
2023-04-12T01:00:23.825Z,2.95
2023-04-12T01:02:53.248Z,3.55
2023-04-12T01:05:25.052Z,3.60
2023-04-12T01:08:07.329Z,3.20
2023-04-12T01:10:45.369Z,3.63
2023-04-12T01:13:27.102Z,3.00
2023-04-12T01:16:05.399Z,3.58
2023-04-12T01:18:40.940Z,4.75
2023-04-12T01:21:17.717Z,3.47
2023-04-12T01:23:59.401Z,3.63
2023-04-12T01:26:47.388Z,2.78
2023-04-12T01:29:20.004Z,4.38
2023-04-12T01:31:56.516Z,4.05
2023-04-12T01:34:27.765Z,3.15
2023-04-12T01:37:01.128Z,3.20
2023-04-12T01:39:31.102Z,3.10
2023-04-12T01:41:59.491Z,3.47
2023-04-12T01:44:29.467Z,3.88
2023-04-12T01:46:58.847Z,3.45
2023-04-12T01:49:32.801Z,3.70
2023-04-12T01:52:05.223Z,3.70
2023-04-12T01:54:38.459Z,3.05
2023-04-12T01:57:08.674Z,3.25
2023-04-12T01:59:42.934Z,3.30
2023-04-12T02:02:12.528Z,2.83
2023-04-12T02:04:43.112Z,3.05
2023-04-12T02:07:11.587Z,3.60
2023-04-12T02:09:40.811Z,3.20
2023-04-12T02:12:10.265Z,3.33
2023-04-12T02:14:40.413Z,3.83
2023-04-12T02:17:09.887Z,6.18
2023-04-12T02:19:38.945Z,3.35
2023-04-12T02:22:08.643Z,3.33
2023-04-12T02:24:37.380Z,4.25
2023-04-12T02:27:07.537Z,3.70
2023-04-12T02:29:39.670Z,5.03
2023-04-12T02:32:08.146Z,4.25
2023-04-12T02:34:38.576Z,3.95
2023-04-12T02:37:17.904Z,5.32
2023-04-12T02:39:46.481Z,4.55
2023-04-12T02:42:15.100Z,4.13
2023-04-12T02:44:47.951Z,4.50
2023-04-12T02:47:17.360Z,4.65
2023-04-12T02:49:49.002Z,5.05
2023-04-12T02:52:19.709Z,4.43
2023-04-12T02:55:10.647Z,6.25
2023-04-12T02:57:39.177Z,5.05
2023-04-12T03:00:12.975Z,4.60
2023-04-12T03:02:45.087Z,4.85
2023-04-12T03:05:20.572Z,4.57
2023-04-12T03:07:49.654Z,5.22
2023-04-12T03:10:21.962Z,5.50
2023-04-12T03:12:57.776Z,5.72
2023-04-12T03:15:35.613Z,5.00
2023-04-12T03:18:04.918Z,5.03
2023-04-12T03:20:45.397Z,6.95
2023-04-12T03:23:16.569Z,5.05
2023-04-12T03:25:47.955Z,5.25
2023-04-12T03:28:35.954Z,5.45
2023-04-12T03:31:09.110Z,4.90
2023-04-12T03:33:43.226Z,5.82
2023-04-12T03:36:21.832Z,5.25
2023-04-12T03:38:55.696Z,5.25
2023-04-12T03:41:24.785Z,5.97
2023-04-12T03:43:53.160Z,4.55
2023-04-12T03:46:23.006Z,4.65
2023-04-12T03:49:22.358Z,4.07
2023-04-12T03:51:51.055Z,3.88
2023-04-12T03:54:19.381Z,4.55
2023-04-12T03:56:59.429Z,3.75
2023-04-12T03:59:34.090Z,3.90
2023-04-12T04:02:04.321Z,3.33
2023-04-12T04:04:37.591Z,3.70
2023-04-12T04:07:09.455Z,3.30
2023-04-12T04:09:43.955Z,4.15
2023-04-12T04:12:13.327Z,3.92
2023-04-12T04:14:46.159Z,3.67
2023-04-12T04:17:25.006Z,3.58
2023-04-12T04:19:53.969Z,3.10
2023-04-12T04:22:22.886Z,2.53
2023-04-12T04:24:53.366Z,3.03
2023-04-12T04:27:22.216Z,2.95
2023-04-12T04:29:53.852Z,3.60
2023-04-12T04:32:22.314Z,4.00
2023-04-12T04:34:57.596Z,5.03
2023-04-12T04:37:26.376Z,3.50
2023-04-12T04:39:54.829Z,3.60
2023-04-12T04:42:23.308Z,3.92
2023-04-12T04:45:04.790Z,4.07
2023-04-12T04:47:39.178Z,3.15
2023-04-12T04:50:09.685Z,3.55
2023-04-12T04:52:39.530Z,3.38
2023-04-12T04:55:13.076Z,3.72
2023-04-12T04:57:46.169Z,3.90
2023-04-12T05:00:16.643Z,3.72
2023-04-12T05:02:48.446Z,3.17
2023-04-12T05:05:26.230Z,3.50
2023-04-12T05:08:01.796Z,3.13
2023-04-12T05:10:35.070Z,2.78
2023-04-12T05:13:04.247Z,3.40
2023-04-12T05:15:32.799Z,2.78
2023-04-12T05:18:01.635Z,3.50
2023-04-12T05:20:33.067Z,3.45
2023-04-12T05:23:01.496Z,2.90
2023-04-12T05:25:29.658Z,2.85
2023-04-12T05:28:05.079Z,2.70
2023-04-12T05:30:33.872Z,2.80
2023-04-12T05:33:03.620Z,3.40
2023-04-12T05:35:33.451Z,2.70
2023-04-12T05:38:01.801Z,3.80
2023-04-12T05:40:31.740Z,3.40
2023-04-12T05:43:00.888Z,3.35
2023-04-12T05:45:31.953Z,3.25
2023-04-12T05:48:01.437Z,3.22
2023-04-12T05:50:30.636Z,3.30
2023-04-12T05:53:02.203Z,3.83
2023-04-12T05:55:33.589Z,3.35
2023-04-12T05:58:03.395Z,3.13
2023-04-12T06:00:32.545Z,4.18
2023-04-12T06:03:01.126Z,3.40
2023-04-12T06:05:29.639Z,2.83
2023-04-12T06:08:00.050Z,3.45
2023-04-12T06:10:29.933Z,3.78
2023-04-12T06:12:58.376Z,4.35
2023-04-12T06:15:26.975Z,3.00
2023-04-12T06:17:56.164Z,4.75
2023-04-12T06:20:24.653Z,2.75
2023-04-12T06:22:53.362Z,3.85
2023-04-12T06:25:23.251Z,3.17
2023-04-12T06:27:53.832Z,3.75
2023-04-12T06:30:24.711Z,3.95
2023-04-12T06:32:54.806Z,4.38
2023-04-12T06:35:24.364Z,3.50
2023-04-12T06:37:52.967Z,4.35
2023-04-12T06:40:21.284Z,2.92
2023-04-12T06:42:49.651Z,3.33
2023-04-12T06:45:24.764Z,4.10
2023-04-12T06:47:56.099Z,3.10
2023-04-12T06:50:24.432Z,3.30
2023-04-12T06:52:52.934Z,3.80
2023-04-12T06:55:21.233Z,3.50
2023-04-12T06:57:52.141Z,4.15
2023-04-12T07:00:20.851Z,4.10
2023-04-12T07:02:50.487Z,3.47
2023-04-12T07:05:19.214Z,3.30
2023-04-12T07:07:47.490Z,3.17
2023-04-12T07:10:16.032Z,2.83
2023-04-12T07:12:44.135Z,3.05
2023-04-12T07:15:12.964Z,3.00
2023-04-12T07:17:41.175Z,2.63
2023-04-12T07:20:12.257Z,3.05
2023-04-12T07:22:40.775Z,2.67
2023-04-12T07:25:10.996Z,2.55
2023-04-12T07:27:39.291Z,2.58
2023-04-12T07:30:08.879Z,2.28
2023-04-12T07:32:37.019Z,3.10
2023-04-12T07:35:06.142Z,3.90
2023-04-12T07:37:35.844Z,2.85
2023-04-12T07:40:04.604Z,2.53
2023-04-12T07:42:32.919Z,2.97
2023-04-12T07:45:01.072Z,2.55
2023-04-12T07:47:29.526Z,2.53
2023-04-12T07:49:58.917Z,3.00
2023-04-12T07:52:27.535Z,2.28
2023-04-12T07:54:57.216Z,2.65
2023-04-12T07:57:26.483Z,2.50
2023-04-12T07:59:54.939Z,2.67
2023-04-12T08:02:26.317Z,2.58
2023-04-12T08:04:55.856Z,2.40
2023-04-12T08:07:24.126Z,2.72
2023-04-12T08:09:52.584Z,2.75
2023-04-12T08:12:22.479Z,2.63
2023-04-12T08:14:51.037Z,2.70
2023-04-12T08:17:19.312Z,2.22
2023-04-12T08:19:47.468Z,2.78
2023-04-12T08:22:15.694Z,2.72
2023-04-12T08:24:44.117Z,3.17
2023-04-12T08:27:13.932Z,3.50
2023-04-12T08:29:43.581Z,3.30
2023-04-12T08:32:12.722Z,3.28
2023-04-12T08:34:42.030Z,3.28
2023-04-12T08:37:11.178Z,3.67
2023-04-12T08:39:39.306Z,4.10
2023-04-12T08:42:08.480Z,4.15
2023-04-12T08:44:38.707Z,3.30
2023-04-12T08:47:10.672Z,4.03
2023-04-12T08:49:39.566Z,3.67
2023-04-12T08:52:09.522Z,2.90
2023-04-12T08:54:38.698Z,3.03
2023-04-12T08:57:09.270Z,3.25
2023-04-12T08:59:39.913Z,2.90
2023-04-12T09:02:09.586Z,2.58
2023-04-12T09:04:49.090Z,3.45
2023-04-12T09:07:19.261Z,3.30
2023-04-12T09:09:49.370Z,2.80
2023-04-12T09:12:20.490Z,2.58
2023-04-12T09:14:49.181Z,2.90
2023-04-12T09:17:27.500Z,2.60
2023-04-12T09:19:56.395Z,2.67
2023-04-12T09:22:34.565Z,2.60
2023-04-12T09:25:03.258Z,3.05
2023-04-12T09:27:31.699Z,2.50
2023-04-12T09:30:10.464Z,3.17
2023-04-12T09:32:40.189Z,2.72
2023-04-12T09:35:09.923Z,2.80
2023-04-12T09:37:38.131Z,3.60
2023-04-12T09:40:08.382Z,3.40
2023-04-12T09:42:37.742Z,3.10
2023-04-12T09:45:21.774Z,3.30
2023-04-12T09:47:51.555Z,2.80
2023-04-12T09:50:24.056Z,2.30
2023-04-12T09:52:54.406Z,2.55
2023-04-12T09:55:23.323Z,2.47
2023-04-12T09:57:54.086Z,2.42
2023-04-12T10:00:26.768Z,2.40
2023-04-12T10:02:58.024Z,3.00
2023-04-12T10:05:27.963Z,2.72
2023-04-12T10:07:59.294Z,2.67
2023-04-12T10:10:31.871Z,2.88
2023-04-12T10:13:02.309Z,3.08
2023-04-12T10:15:31.519Z,3.03
2023-04-12T10:18:08.240Z,2.63
2023-04-12T10:20:37.287Z,2.85
2023-04-12T10:23:07.984Z,2.10
2023-04-12T10:25:36.234Z,2.95
2023-04-12T10:28:16.027Z,2.42
2023-04-12T10:30:44.279Z,2.15
2023-04-12T10:33:17.001Z,2.00
2023-04-12T10:36:00.836Z,2.10
2023-04-12T10:38:35.786Z,2.13
2023-04-12T10:41:18.611Z,2.80
2023-04-12T10:43:48.015Z,2.30
2023-04-12T10:46:49.203Z,2.17
2023-04-12T10:49:19.709Z,1.90
2023-04-12T10:52:18.321Z,2.20
2023-04-12T10:54:47.745Z,1.70
2023-04-12T10:57:43.514Z,2.00
2023-04-12T11:00:13.050Z,2.35
2023-04-12T11:03:13.490Z,2.08
2023-04-12T11:06:16.149Z,2.10
2023-04-12T11:09:19.986Z,2.00
2023-04-12T11:11:48.295Z,2.13
2023-04-12T11:14:18.839Z,1.80
2023-04-12T11:17:27.691Z,2.10
2023-04-12T11:19:58.607Z,1.77
2023-04-12T11:22:30.818Z,1.98
2023-04-12T11:25:01.174Z,1.40
2023-04-12T11:27:30.098Z,1.90
2023-04-12T11:30:00.421Z,1.73
2023-04-12T11:32:30.746Z,1.80
2023-04-12T11:34:59.944Z,1.90
2023-04-12T11:37:33.270Z,1.95
2023-04-12T11:40:01.926Z,1.50
2023-04-12T11:42:30.481Z,1.33
2023-04-12T11:45:03.105Z,1.00
2023-04-12T11:47:35.946Z,1.42
2023-04-12T11:50:04.271Z,1.30
2023-04-12T11:52:34.712Z,1.35
2023-04-12T11:55:06.861Z,1.20
2023-04-12T11:57:35.991Z,1.40
2023-04-12T12:00:06.643Z,1.17
2023-04-12T12:02:52.179Z,1.20
2023-04-12T12:05:24.943Z,1.80
2023-04-12T12:07:55.740Z,1.08
2023-04-12T12:10:39.922Z,1.50
2023-04-12T12:13:12.755Z,1.60
2023-04-12T12:15:41.538Z,1.25
2023-04-12T12:18:10.386Z,1.35
2023-04-12T12:20:43.138Z,1.45
2023-04-12T12:23:12.980Z,0.90
2023-04-12T12:25:47.458Z,1.30
2023-04-12T12:28:15.765Z,1.48
2023-04-12T12:30:44.229Z,1.23
2023-04-12T12:33:14.221Z,1.00
2023-04-12T12:35:42.486Z,0.80
2023-04-12T12:38:12.810Z,1.30
2023-04-12T12:40:41.614Z,1.23
2023-04-12T12:43:19.600Z,1.42
2023-04-12T12:45:48.389Z,1.23
2023-04-12T12:48:16.735Z,1.00
2023-04-12T12:50:45.180Z,1.35
2023-04-12T12:53:14.704Z,1.42
2023-04-12T12:55:43.110Z,1.15
2023-04-12T12:58:11.445Z,1.40
2023-04-12T13:00:41.419Z,2.30
2023-04-12T13:03:09.729Z,1.13
2023-04-12T13:05:38.272Z,1.10
2023-04-12T13:08:06.879Z,1.05
2023-04-12T13:10:36.375Z,1.00
2023-04-12T13:13:04.968Z,0.90
2023-04-12T13:15:33.243Z,1.08
2023-04-12T13:18:01.747Z,1.15
2023-04-12T13:20:30.179Z,1.20
2023-04-12T13:22:58.416Z,0.90
2023-04-12T13:25:26.631Z,1.38
2023-04-12T13:27:56.183Z,1.10
2023-04-12T13:30:24.611Z,1.48
2023-04-12T13:32:52.947Z,1.00
2023-04-12T13:35:21.359Z,1.30
2023-04-12T13:37:49.537Z,1.92
2023-04-12T13:40:17.816Z,1.52
2023-04-12T13:42:45.948Z,1.20
2023-04-12T13:45:15.843Z,1.60
2023-04-12T13:47:44.053Z,1.25
2023-04-12T13:50:12.487Z,1.50
2023-04-12T13:52:40.971Z,1.40
2023-04-12T13:55:09.838Z,1.33
2023-04-12T13:57:38.024Z,1.00
2023-04-12T14:00:07.462Z,1.10
2023-04-12T14:02:37.452Z,1.38
2023-04-12T14:05:06.329Z,1.30
2023-04-12T14:07:34.713Z,1.38
2023-04-12T14:10:03.064Z,1.25
2023-04-12T14:12:31.276Z,1.50
2023-04-12T14:14:59.416Z,1.30
2023-04-12T14:17:32.649Z,1.45
2023-04-12T14:20:02.675Z,1.35
2023-04-12T14:22:31.003Z,1.50
2023-04-12T14:24:59.240Z,1.50
2023-04-12T14:27:27.459Z,1.27
2023-04-12T14:29:56.857Z,1.58
2023-04-12T14:32:25.099Z,1.50
2023-04-12T14:34:53.748Z,1.20
2023-04-12T14:37:23.357Z,1.20
2023-04-12T14:39:51.663Z,1.27
2023-04-12T14:42:20.094Z,1.30
2023-04-12T14:44:48.217Z,1.60
2023-04-12T14:47:16.450Z,1.27
2023-04-12T14:49:44.845Z,1.42
2023-04-12T14:52:12.979Z,1.20
2023-04-12T14:54:42.670Z,1.30
2023-04-12T14:57:11.250Z,1.33
2023-04-12T14:59:39.794Z,1.20
2023-04-12T15:02:08.336Z,0.80
2023-04-12T15:04:36.703Z,0.70
2023-04-12T15:07:04.966Z,0.60
2023-04-12T15:09:33.430Z,0.60
2023-04-12T15:12:03.189Z,0.50
2023-04-12T15:14:31.715Z,0.80
2023-04-12T15:16:59.879Z,0.65
2023-04-12T15:19:28.338Z,0.65
2023-04-12T15:21:56.517Z,0.60
2023-04-12T15:24:26.255Z,0.50
2023-04-12T15:26:54.688Z,0.50
2023-04-12T15:29:24.601Z,0.60
2023-04-12T15:31:53.101Z,0.50
2023-04-12T15:34:23.504Z,0.52
2023-04-12T15:36:52.166Z,0.70
2023-04-12T15:39:20.524Z,0.80
2023-04-12T15:41:48.967Z,0.55
2023-04-12T15:44:17.242Z,0.50
2023-04-12T15:46:56.034Z,0.63
2023-04-12T15:49:33.703Z,0.60
2023-04-12T15:52:04.728Z,0.68
2023-04-12T15:54:33.007Z,0.60
2023-04-12T15:57:11.164Z,1.15
2023-04-12T15:59:40.710Z,0.60
2023-04-12T16:02:10.600Z,0.80
2023-04-12T16:04:39.523Z,0.80
2023-04-12T16:07:08.116Z,1.10
2023-04-12T16:09:36.673Z,0.50
2023-04-12T16:12:05.437Z,0.80
2023-04-12T16:14:33.831Z,0.50
2023-04-12T16:17:02.075Z,0.50
2023-04-12T16:19:32.511Z,0.70
2023-04-12T16:22:01.036Z,0.60
2023-04-12T16:24:29.764Z,0.70
2023-04-12T16:26:59.337Z,0.70
2023-04-12T16:29:29.166Z,0.70
2023-04-12T16:31:57.564Z,1.00
2023-04-12T16:34:26.681Z,0.80
2023-04-12T16:36:57.626Z,0.80
2023-04-12T16:39:26.130Z,0.80
2023-04-12T16:41:54.342Z,0.60
2023-04-12T16:44:22.762Z,0.70
2023-04-12T16:46:51.069Z,0.60
2023-04-12T16:49:19.876Z,0.60
2023-04-12T16:51:48.431Z,0.70
2023-04-12T16:54:18.228Z,0.80
2023-04-12T16:57:11.891Z,1.02
2023-04-12T16:59:42.564Z,0.85
2023-04-12T17:02:10.968Z,0.88
2023-04-12T17:04:39.288Z,0.70
2023-04-12T17:07:08.086Z,0.93
2023-04-12T17:09:37.717Z,0.70
2023-04-12T17:12:07.442Z,1.50
2023-04-12T17:14:36.449Z,0.80
2023-04-12T17:17:06.436Z,0.85
2023-04-12T17:19:35.542Z,0.90
2023-04-12T17:22:03.828Z,0.80
2023-04-12T17:24:32.313Z,1.08
2023-04-12T17:27:02.036Z,0.77
2023-04-12T17:29:30.546Z,0.80
2023-04-12T17:31:59.103Z,0.95
2023-04-12T17:34:27.313Z,1.00
2023-04-12T17:36:55.808Z,0.90
2023-04-12T17:39:24.095Z,1.00
2023-04-12T17:41:52.505Z,0.90
2023-04-12T17:44:22.216Z,0.80
2023-04-12T17:46:50.455Z,0.90
2023-04-12T17:49:18.769Z,0.90
2023-04-12T17:51:46.938Z,1.20
2023-04-12T17:54:15.301Z,0.90
2023-04-12T17:56:43.501Z,0.70
2023-04-12T17:59:11.832Z,0.95
2023-04-12T18:01:42.028Z,0.95
2023-04-12T18:04:10.395Z,0.82
2023-04-12T18:06:39.579Z,0.80
2023-04-12T18:09:07.944Z,1.00
2023-04-12T18:11:38.920Z,0.70
2023-04-12T18:14:07.396Z,1.17
2023-04-12T18:16:35.701Z,1.05
2023-04-12T18:19:07.410Z,1.05
2023-04-12T18:21:36.315Z,1.00
2023-04-12T18:24:04.840Z,0.90
2023-04-12T18:26:33.464Z,0.75
2023-04-12T18:29:01.708Z,0.80
2023-04-12T18:31:30.296Z,0.90
2023-04-12T18:33:58.813Z,1.25
2023-04-12T18:36:28.760Z,0.95
2023-04-12T18:38:56.915Z,1.00
2023-04-12T18:41:25.724Z,1.00
2023-04-12T18:43:53.951Z,0.95
2023-04-12T18:46:22.404Z,0.82
2023-04-12T18:48:52.954Z,1.10
2023-04-12T18:51:23.326Z,1.10
2023-04-12T18:53:53.215Z,1.27
2023-04-12T18:56:24.716Z,1.17
2023-04-12T18:58:55.661Z,1.20
2023-04-12T19:01:25.168Z,1.20
2023-04-12T19:03:53.740Z,1.27
2023-04-12T19:06:22.391Z,1.05
2023-04-12T19:08:52.262Z,1.27
2023-04-12T19:11:20.842Z,1.20
2023-04-12T19:13:49.433Z,0.93
2023-04-12T19:16:17.676Z,0.80
2023-04-12T19:18:46.560Z,0.90
2023-04-12T19:21:14.859Z,1.45
2023-04-12T19:23:44.383Z,0.90
2023-04-12T19:26:14.020Z,1.08
2023-04-12T19:28:43.528Z,0.88
2023-04-12T19:31:12.166Z,0.98
2023-04-12T19:33:41.768Z,1.05
2023-04-12T19:36:11.890Z,0.93
2023-04-12T19:38:41.569Z,1.20
2023-04-12T19:41:09.851Z,1.25
2023-04-12T19:43:39.651Z,1.00
2023-04-12T19:46:08.318Z,1.10
2023-04-12T19:48:36.831Z,0.82
2023-04-12T19:51:05.628Z,1.02
2023-04-12T19:53:34.293Z,0.90
2023-04-12T19:56:04.216Z,1.20
2023-04-12T19:58:33.628Z,0.80
2023-04-12T20:01:04.185Z,1.10
2023-04-12T20:03:33.030Z,0.80
2023-04-12T20:06:04.310Z,0.95
2023-04-12T20:08:33.263Z,1.00
2023-04-12T20:11:02.656Z,1.17
2023-04-12T20:13:31.379Z,1.00
2023-04-12T20:16:01.435Z,1.13
2023-04-12T20:18:31.093Z,1.02
2023-04-12T20:20:59.634Z,1.00
2023-04-12T20:23:29.425Z,1.10
2023-04-12T20:25:58.113Z,2.00
2023-04-12T20:28:26.737Z,1.17
2023-04-12T20:30:55.373Z,1.13
2023-04-12T20:33:23.939Z,0.80
2023-04-12T20:35:54.175Z,0.60
2023-04-12T20:38:23.372Z,0.52
2023-04-12T20:40:51.788Z,0.60
2023-04-12T20:43:20.362Z,0.60
2023-04-12T20:45:48.956Z,0.52
2023-04-12T20:48:17.356Z,0.50
2023-04-12T20:50:46.460Z,0.60
2023-04-12T20:53:17.664Z,0.65
2023-04-12T20:55:46.767Z,0.70
2023-04-12T20:58:16.593Z,0.98
2023-04-12T21:00:45.032Z,0.50
2023-04-12T21:03:13.346Z,0.50
2023-04-12T21:05:42.096Z,0.60
2023-04-12T21:08:10.611Z,0.57
2023-04-12T21:10:41.141Z,0.50
2023-04-12T21:13:09.681Z,0.70
2023-04-12T21:15:38.591Z,0.57
2023-04-12T21:18:07.043Z,0.98
2023-04-12T21:20:35.746Z,0.45
2023-04-12T21:23:06.682Z,0.60
2023-04-12T21:25:35.909Z,0.70
2023-04-12T21:28:06.948Z,0.47
2023-04-12T21:30:35.931Z,0.60
2023-04-12T21:33:04.598Z,0.50
2023-04-12T21:35:32.868Z,0.60
2023-04-12T21:38:01.506Z,0.70
2023-04-12T21:40:29.885Z,0.90
2023-04-12T21:42:58.331Z,0.50
2023-04-12T21:45:28.095Z,0.60
2023-04-12T21:47:56.447Z,0.60
2023-04-12T21:50:24.630Z,0.82
2023-04-12T21:52:54.716Z,1.05
2023-04-12T21:55:23.131Z,0.80
2023-04-12T21:57:51.499Z,0.88
2023-04-12T22:00:20.200Z,0.77
2023-04-12T22:02:49.921Z,0.63
2023-04-12T22:05:40.120Z,0.70
2023-04-12T22:08:08.774Z,0.80
2023-04-12T22:10:37.486Z,0.80
2023-04-12T22:13:05.696Z,0.70
2023-04-12T22:15:33.957Z,0.60
2023-04-12T22:18:04.064Z,0.80
2023-04-12T22:20:33.798Z,0.75
2023-04-12T22:23:02.297Z,0.70
2023-04-12T22:25:30.752Z,0.80
2023-04-12T22:27:59.312Z,0.60
2023-04-12T22:30:29.166Z,0.90
2023-04-12T22:32:58.899Z,0.95
2023-04-12T22:35:30.092Z,0.70
2023-04-12T22:37:58.364Z,1.00
2023-04-12T22:40:26.634Z,0.80
2023-04-12T22:42:56.223Z,0.77
2023-04-12T22:45:24.703Z,0.80
2023-04-12T22:47:54.182Z,0.85
2023-04-12T22:50:24.865Z,0.95
2023-04-12T22:52:54.548Z,1.00
2023-04-12T22:55:22.960Z,0.60
2023-04-12T22:57:51.195Z,0.98
2023-04-12T23:00:19.629Z,0.90
2023-04-12T23:02:48.752Z,0.95
2023-04-12T23:05:17.632Z,0.70
2023-04-12T23:07:46.131Z,0.88
2023-04-12T23:10:16.008Z,0.85
2023-04-12T23:12:44.365Z,1.13
2023-04-12T23:15:12.812Z,1.02
2023-04-12T23:17:41.298Z,1.00
2023-04-12T23:20:13.143Z,0.77
2023-04-12T23:22:57.370Z,0.77
2023-04-12T23:25:39.298Z,0.70
2023-04-12T23:28:13.524Z,0.75
2023-04-12T23:30:43.973Z,0.95
2023-04-12T23:33:13.052Z,1.08
2023-04-12T23:35:41.822Z,0.80
2023-04-12T23:38:11.021Z,1.00
2023-04-12T23:40:40.905Z,0.82
2023-04-12T23:43:09.923Z,0.70
2023-04-12T23:45:39.490Z,0.80
2023-04-12T23:48:08.037Z,0.70
2023-04-12T23:50:36.697Z,0.70
2023-04-12T23:53:05.923Z,0.90
2023-04-12T23:55:34.123Z,0.77
2023-04-12T23:58:03.969Z,0.70
